sensor_id;sensor_type;location;lat;lon;timestamp;temperature;humidity
17891;DHT22;9071;48.220;14.480;2024-01-10T00:01:12;-3.70;99.90
17891;DHT22;9071;48.220;14.480;2024-01-10T00:06:14;-3.70;99.90
17891;DHT22;9071;48.220;14.480;2024-01-10T00:11:16;-3.70;99.90
17891;DHT22;9071;48.220;14.480;2024-01-10T00:16:20;-3.80;99.90
17891;DHT22;9071;48.220;14.480;2024-01-10T00:21:22;-3.80;99.90
17891;DHT22;9071;48.220;14.480;2024-01-10T00:26:24;-3.80;99.90
17891;DHT22;9071;48.220;14.480;2024-01-10T00:31:27;-3.90;99.90
17891;DHT22;9071;48.220;14.480;2024-01-10T00:36:29;-3.80;99.90
17891;DHT22;9071;48.220;14.480;2024-01-10T00:41:31;-3.80;99.90
17891;DHT22;9071;48.220;14.480;2024-01-10T00:46:35;-3.80;99.90
17891;DHT22;9071;48.220;14.480;2024-01-10T00:51:37;-3.80;99.90
17891;DHT22;9071;48.220;14.480;2024-01-10T00:56:39;-3.80;99.90
17891;DHT22;9071;48.220;14.480;2024-01-10T01:01:42;-3.80;99.90
17891;DHT22;9071;48.220;14.480;2024-01-10T01:06:46;-3.80;99.90
17891;DHT22;9071;48.220;14.480;2024-01-10T01:11:48;-3.70;99.90
17891;DHT22;9071;48.220;14.480;2024-01-10T01:16:52;-3.70;99.90
17891;DHT22;9071;48.220;14.480;2024-01-10T01:21:54;-3.80;99.90
17891;DHT22;9071;48.220;14.480;2024-01-10T01:26:56;-3.70;99.90
17891;DHT22;9071;48.220;14.480;2024-01-10T01:32:02;-3.70;99.90
17891;DHT22;9071;48.220;14.480;2024-01-10T01:37:04;-3.70;99.90
17891;DHT22;9071;48.220;14.480;2024-01-10T01:42:06;-3.80;99.90
17891;DHT22;9071;48.220;14.480;2024-01-10T01:47:10;-3.80;99.90
17891;DHT22;9071;48.220;14.480;2024-01-10T01:52:12;-3.70;99.90
17891;DHT22;9071;48.220;14.480;2024-01-10T01:57:14;-3.70;99.90
17891;DHT22;9071;48.220;14.480;2024-01-10T02:02:18;-3.70;99.90
17891;DHT22;9071;48.220;14.480;2024-01-10T02:07:22;-3.80;99.90
17891;DHT22;9071;48.220;14.480;2024-01-10T02:12:24;-3.80;99.90
17891;DHT22;9071;48.220;14.480;2024-01-10T02:17:28;-3.80;99.90
17891;DHT22;9071;48.220;14.480;2024-01-10T02:22:30;-3.80;99.90
17891;DHT22;9071;48.220;14.480;2024-01-10T02:27:34;-3.90;99.90
17891;DHT22;9071;48.220;14.480;2024-01-10T02:32:37;-3.90;99.90
17891;DHT22;9071;48.220;14.480;2024-01-10T02:37:39;-3.80;99.90
17891;DHT22;9071;48.220;14.480;2024-01-10T02:42:42;-3.80;99.90
17891;DHT22;9071;48.220;14.480;2024-01-10T02:47:45;-3.80;99.90
17891;DHT22;9071;48.220;14.480;2024-01-10T02:52:47;-3.90;99.90
17891;DHT22;9071;48.220;14.480;2024-01-10T02:57:50;-3.90;99.90
17891;DHT22;9071;48.220;14.480;2024-01-10T03:02:52;-3.90;99.90
17891;DHT22;9071;48.220;14.480;2024-01-10T03:07:54;-4.00;99.90
17891;DHT22;9071;48.220;14.480;2024-01-10T03:12:58;-3.90;99.90
17891;DHT22;9071;48.220;14.480;2024-01-10T03:18:00;-3.90;99.90
17891;DHT22;9071;48.220;14.480;2024-01-10T03:23:02;-4.00;99.90
17891;DHT22;9071;48.220;14.480;2024-01-10T03:28:06;-4.10;99.90
17891;DHT22;9071;48.220;14.480;2024-01-10T03:33:08;-4.00;99.90
17891;DHT22;9071;48.220;14.480;2024-01-10T03:38:10;-4.00;99.90
17891;DHT22;9071;48.220;14.480;2024-01-10T03:43:13;-4.10;99.90
17891;DHT22;9071;48.220;14.480;2024-01-10T03:48:17;-4.10;99.90
17891;DHT22;9071;48.220;14.480;2024-01-10T03:53:19;-4.10;99.90
17891;DHT22;9071;48.220;14.480;2024-01-10T03:58:23;-4.10;99.90
17891;DHT22;9071;48.220;14.480;2024-01-10T04:03:25;-4.10;99.90
17891;DHT22;9071;48.220;14.480;2024-01-10T04:08:28;-4.10;99.90
17891;DHT22;9071;48.220;14.480;2024-01-10T04:13:31;-4.20;99.90
17891;DHT22;9071;48.220;14.480;2024-01-10T04:18:33;-4.20;99.90
17891;DHT22;9071;48.220;14.480;2024-01-10T04:23:35;-4.20;99.90
17891;DHT22;9071;48.220;14.480;2024-01-10T04:28:39;-4.20;99.90
17891;DHT22;9071;48.220;14.480;2024-01-10T04:33:41;-4.20;99.90
17891;DHT22;9071;48.220;14.480;2024-01-10T04:38:44;-4.30;99.90
17891;DHT22;9071;48.220;14.480;2024-01-10T04:43:47;-4.30;99.90
17891;DHT22;9071;48.220;14.480;2024-01-10T04:48:49;-4.30;99.90
17891;DHT22;9071;48.220;14.480;2024-01-10T04:53:51;-4.30;99.90
17891;DHT22;9071;48.220;14.480;2024-01-10T04:58:54;-4.30;99.90
17891;DHT22;9071;48.220;14.480;2024-01-10T05:03:56;-4.40;99.90
17891;DHT22;9071;48.220;14.480;2024-01-10T05:08:58;-4.40;99.90
17891;DHT22;9071;48.220;14.480;2024-01-10T05:14:02;-4.40;99.90
17891;DHT22;9071;48.220;14.480;2024-01-10T05:19:04;-4.30;99.90
17891;DHT22;9071;48.220;14.480;2024-01-10T05:24:06;-4.40;99.90
17891;DHT22;9071;48.220;14.480;2024-01-10T05:29:10;-4.40;99.90
17891;DHT22;9071;48.220;14.480;2024-01-10T05:34:12;-4.50;99.90
17891;DHT22;9071;48.220;14.480;2024-01-10T05:39:14;-4.50;99.90
17891;DHT22;9071;48.220;14.480;2024-01-10T05:44:18;-4.50;99.90
17891;DHT22;9071;48.220;14.480;2024-01-10T05:49:21;-4.70;99.90
17891;DHT22;9071;48.220;14.480;2024-01-10T05:54:23;-4.70;99.90
17891;DHT22;9071;48.220;14.480;2024-01-10T05:59:26;-4.70;99.90
17891;DHT22;9071;48.220;14.480;2024-01-10T06:04:28;-4.80;99.90
17891;DHT22;9071;48.220;14.480;2024-01-10T06:09:31;-4.80;99.90
17891;DHT22;9071;48.220;14.480;2024-01-10T06:14:35;-4.80;99.90
17891;DHT22;9071;48.220;14.480;2024-01-10T06:19:37;-4.80;99.90
17891;DHT22;9071;48.220;14.480;2024-01-10T06:24:40;-4.70;99.90
17891;DHT22;9071;48.220;14.480;2024-01-10T06:29:44;-4.70;99.90
17891;DHT22;9071;48.220;14.480;2024-01-10T06:34:46;-4.70;99.90
17891;DHT22;9071;48.220;14.480;2024-01-10T06:39:48;-4.80;99.90
17891;DHT22;9071;48.220;14.480;2024-01-10T06:44:51;-4.80;99.90
17891;DHT22;9071;48.220;14.480;2024-01-10T06:49:53;-4.80;99.90
17891;DHT22;9071;48.220;14.480;2024-01-10T06:54:55;-4.80;99.90
17891;DHT22;9071;48.220;14.480;2024-01-10T06:59:59;-4.70;99.90
17891;DHT22;9071;48.220;14.480;2024-01-10T07:05:03;-4.80;99.90
17891;DHT22;9071;48.220;14.480;2024-01-10T07:10:09;-4.80;99.90
17891;DHT22;9071;48.220;14.480;2024-01-10T07:15:14;-4.80;99.90
17891;DHT22;9071;48.220;14.480;2024-01-10T07:20:16;-4.90;99.90
17891;DHT22;9071;48.220;14.480;2024-01-10T07:25:18;-4.60;99.90
17891;DHT22;9071;48.220;14.480;2024-01-10T07:30:24;-4.20;99.90
17891;DHT22;9071;48.220;14.480;2024-01-10T07:35:26;-4.40;99.90
17891;DHT22;9071;48.220;14.480;2024-01-10T07:40:29;-4.50;99.90
17891;DHT22;9071;48.220;14.480;2024-01-10T07:45:33;-4.50;99.90
17891;DHT22;9071;48.220;14.480;2024-01-10T07:50:35;-4.50;99.90
17891;DHT22;9071;48.220;14.480;2024-01-10T07:55:38;-4.40;99.90
17891;DHT22;9071;48.220;14.480;2024-01-10T08:00:41;-4.30;99.90
17891;DHT22;9071;48.220;14.480;2024-01-10T08:05:44;-4.20;99.90
17891;DHT22;9071;48.220;14.480;2024-01-10T08:10:47;-4.10;99.90
17891;DHT22;9071;48.220;14.480;2024-01-10T08:15:50;-4.00;99.90
17891;DHT22;9071;48.220;14.480;2024-01-10T08:20:53;-3.90;99.90
17891;DHT22;9071;48.220;14.480;2024-01-10T08:25:55;-3.80;99.90
17891;DHT22;9071;48.220;14.480;2024-01-10T08:30:59;-3.70;99.90
17891;DHT22;9071;48.220;14.480;2024-01-10T08:36:03;-3.60;99.90
17891;DHT22;9071;48.220;14.480;2024-01-10T08:41:05;-3.50;99.90
17891;DHT22;9071;48.220;14.480;2024-01-10T08:46:08;-3.10;99.90
17891;DHT22;9071;48.220;14.480;2024-01-10T08:51:10;-3.00;99.90
17891;DHT22;9071;48.220;14.480;2024-01-10T08:56:16;-3.00;99.90
17891;DHT22;9071;48.220;14.480;2024-01-10T09:01:20;-3.00;99.90
17891;DHT22;9071;48.220;14.480;2024-01-10T09:06:22;-2.90;99.90
17891;DHT22;9071;48.220;14.480;2024-01-10T09:11:24;-2.90;99.90
17891;DHT22;9071;48.220;14.480;2024-01-10T09:16:28;-2.70;99.90
17891;DHT22;9071;48.220;14.480;2024-01-10T09:21:30;-2.50;99.90
17891;DHT22;9071;48.220;14.480;2024-01-10T09:26:32;-2.30;99.90
17891;DHT22;9071;48.220;14.480;2024-01-10T09:31:35;-2.10;99.90
17891;DHT22;9071;48.220;14.480;2024-01-10T09:36:37;-2.00;99.90
17891;DHT22;9071;48.220;14.480;2024-01-10T09:41:45;-1.80;99.90
17891;DHT22;9071;48.220;14.480;2024-01-10T09:46:52;-1.60;99.90
17891;DHT22;9071;48.220;14.480;2024-01-10T09:51:59;-1.40;99.90
17891;DHT22;9071;48.220;14.480;2024-01-10T09:57:01;-1.20;99.90
17891;DHT22;9071;48.220;14.480;2024-01-10T10:02:05;-1.10;99.90
17891;DHT22;9071;48.220;14.480;2024-01-10T10:07:08;-0.90;99.90
17891;DHT22;9071;48.220;14.480;2024-01-10T10:18:14;-0.50;99.90
17891;DHT22;9071;48.220;14.480;2024-01-10T10:23:16;-0.30;99.90
17891;DHT22;9071;48.220;14.480;2024-01-10T10:28:21;-0.10;99.90
17891;DHT22;9071;48.220;14.480;2024-01-10T10:33:24;-0.10;99.90
17891;DHT22;9071;48.220;14.480;2024-01-10T10:38:26;0.10;99.90
17891;DHT22;9071;48.220;14.480;2024-01-10T10:43:29;0.30;99.90
17891;DHT22;9071;48.220;14.480;2024-01-10T10:48:36;0.60;99.90
17891;DHT22;9071;48.220;14.480;2024-01-10T10:53:39;1.00;99.90
17891;DHT22;9071;48.220;14.480;2024-01-10T10:58:46;1.10;99.90
17891;DHT22;9071;48.220;14.480;2024-01-10T11:03:51;1.00;99.90
17891;DHT22;9071;48.220;14.480;2024-01-10T11:08:56;1.00;99.90
17891;DHT22;9071;48.220;14.480;2024-01-10T11:14:09;1.20;99.90
17891;DHT22;9071;48.220;14.480;2024-01-10T11:19:37;1.50;99.90
17891;DHT22;9071;48.220;14.480;2024-01-10T11:24:45;1.70;99.90
17891;DHT22;9071;48.220;14.480;2024-01-10T11:29:47;1.80;99.90
17891;DHT22;9071;48.220;14.480;2024-01-10T11:34:54;1.80;99.90
17891;DHT22;9071;48.220;14.480;2024-01-10T11:39:57;2.00;99.90
17891;DHT22;9071;48.220;14.480;2024-01-10T11:44:59;1.90;99.90
17891;DHT22;9071;48.220;14.480;2024-01-10T11:50:06;1.90;99.90
17891;DHT22;9071;48.220;14.480;2024-01-10T11:55:08;1.90;99.90
17891;DHT22;9071;48.220;14.480;2024-01-10T12:00:11;2.10;99.90
17891;DHT22;9071;48.220;14.480;2024-01-10T12:05:15;2.20;99.90
17891;DHT22;9071;48.220;14.480;2024-01-10T12:10:17;2.20;99.90
17891;DHT22;9071;48.220;14.480;2024-01-10T12:15:19;2.30;99.90
17891;DHT22;9071;48.220;14.480;2024-01-10T12:20:23;2.40;99.90
17891;DHT22;9071;48.220;14.480;2024-01-10T12:25:26;2.50;99.90
17891;DHT22;9071;48.220;14.480;2024-01-10T12:30:28;2.50;99.90
17891;DHT22;9071;48.220;14.480;2024-01-10T12:35:32;2.30;99.90
17891;DHT22;9071;48.220;14.480;2024-01-10T12:40:34;2.20;99.90
17891;DHT22;9071;48.220;14.480;2024-01-10T12:45:36;2.30;99.90
17891;DHT22;9071;48.220;14.480;2024-01-10T12:50:40;2.20;99.90
17891;DHT22;9071;48.220;14.480;2024-01-10T12:55:42;2.20;99.90
17891;DHT22;9071;48.220;14.480;2024-01-10T13:00:44;2.20;99.90
17891;DHT22;9071;48.220;14.480;2024-01-10T13:05:48;2.20;99.90
17891;DHT22;9071;48.220;14.480;2024-01-10T13:10:50;2.20;99.90
17891;DHT22;9071;48.220;14.480;2024-01-10T13:15:52;2.20;99.90
17891;DHT22;9071;48.220;14.480;2024-01-10T13:20:56;2.20;99.90
17891;DHT22;9071;48.220;14.480;2024-01-10T13:26:00;2.30;99.90
17891;DHT22;9071;48.220;14.480;2024-01-10T13:31:03;2.30;99.90
17891;DHT22;9071;48.220;14.480;2024-01-10T13:36:07;2.30;99.90
17891;DHT22;9071;48.220;14.480;2024-01-10T13:41:09;2.20;99.90
17891;DHT22;9071;48.220;14.480;2024-01-10T13:46:11;2.00;99.90
17891;DHT22;9071;48.220;14.480;2024-01-10T13:51:15;2.00;99.90
17891;DHT22;9071;48.220;14.480;2024-01-10T13:56:17;2.00;99.90
17891;DHT22;9071;48.220;14.480;2024-01-10T14:01:19;2.00;99.90
17891;DHT22;9071;48.220;14.480;2024-01-10T14:06:22;2.00;99.90
17891;DHT22;9071;48.220;14.480;2024-01-10T14:11:24;2.00;99.90
17891;DHT22;9071;48.220;14.480;2024-01-10T14:16:27;2.00;99.90
17891;DHT22;9071;48.220;14.480;2024-01-10T14:21:31;1.90;99.90
17891;DHT22;9071;48.220;14.480;2024-01-10T14:26:33;1.70;99.90
17891;DHT22;9071;48.220;14.480;2024-01-10T14:31:36;1.60;99.90
17891;DHT22;9071;48.220;14.480;2024-01-10T14:36:39;1.50;99.90
17891;DHT22;9071;48.220;14.480;2024-01-10T14:41:42;1.30;99.90
17891;DHT22;9071;48.220;14.480;2024-01-10T14:46:44;1.20;99.90
17891;DHT22;9071;48.220;14.480;2024-01-10T14:51:48;1.10;99.90
17891;DHT22;9071;48.220;14.480;2024-01-10T14:56:50;1.00;99.90
17891;DHT22;9071;48.220;14.480;2024-01-10T15:01:53;0.80;99.90
17891;DHT22;9071;48.220;14.480;2024-01-10T15:06:57;0.60;99.90
17891;DHT22;9071;48.220;14.480;2024-01-10T15:12:03;0.40;99.90
17891;DHT22;9071;48.220;14.480;2024-01-10T15:17:08;0.20;99.90
17891;DHT22;9071;48.220;14.480;2024-01-10T15:22:12;0.00;99.90
17891;DHT22;9071;48.220;14.480;2024-01-10T15:27:14;-0.10;99.90
17891;DHT22;9071;48.220;14.480;2024-01-10T15:32:16;-0.30;99.90
17891;DHT22;9071;48.220;14.480;2024-01-10T15:37:19;-0.50;99.90
17891;DHT22;9071;48.220;14.480;2024-01-10T15:42:21;-0.60;99.90
17891;DHT22;9071;48.220;14.480;2024-01-10T15:47:23;-0.70;99.90
17891;DHT22;9071;48.220;14.480;2024-01-10T15:52:27;-0.90;99.90
17891;DHT22;9071;48.220;14.480;2024-01-10T15:57:29;-1.10;99.90
17891;DHT22;9071;48.220;14.480;2024-01-10T16:02:31;-1.20;99.90
17891;DHT22;9071;48.220;14.480;2024-01-10T16:07:36;-1.40;99.90
17891;DHT22;9071;48.220;14.480;2024-01-10T16:12:38;-1.40;99.90
17891;DHT22;9071;48.220;14.480;2024-01-10T16:17:40;-1.20;99.90
17891;DHT22;9071;48.220;14.480;2024-01-10T16:22:44;-1.30;99.90
17891;DHT22;9071;48.220;14.480;2024-01-10T16:27:46;-1.20;99.90
17891;DHT22;9071;48.220;14.480;2024-01-10T16:32:49;-1.10;99.90
17891;DHT22;9071;48.220;14.480;2024-01-10T16:37:52;-1.10;99.90
17891;DHT22;9071;48.220;14.480;2024-01-10T16:42:54;-0.70;99.90
17891;DHT22;9071;48.220;14.480;2024-01-10T16:47:56;-0.50;99.90
17891;DHT22;9071;48.220;14.480;2024-01-10T16:53:00;-0.80;99.90
17891;DHT22;9071;48.220;14.480;2024-01-10T16:58:03;-1.20;99.90
17891;DHT22;9071;48.220;14.480;2024-01-10T17:03:05;-1.40;99.90
17891;DHT22;9071;48.220;14.480;2024-01-10T17:08:09;-1.60;99.90
17891;DHT22;9071;48.220;14.480;2024-01-10T17:13:11;-1.70;99.90
17891;DHT22;9071;48.220;14.480;2024-01-10T17:18:13;-1.80;99.90
17891;DHT22;9071;48.220;14.480;2024-01-10T17:23:16;-2.00;99.90
17891;DHT22;9071;48.220;14.480;2024-01-10T17:28:18;-2.10;99.90
17891;DHT22;9071;48.220;14.480;2024-01-10T17:33:22;-2.30;99.90
17891;DHT22;9071;48.220;14.480;2024-01-10T17:38:26;-2.40;99.90
17891;DHT22;9071;48.220;14.480;2024-01-10T17:43:30;-2.60;99.90
17891;DHT22;9071;48.220;14.480;2024-01-10T17:48:32;-2.80;99.90
17891;DHT22;9071;48.220;14.480;2024-01-10T17:53:35;-2.90;99.90
17891;DHT22;9071;48.220;14.480;2024-01-10T17:58:37;-3.20;99.90
17891;DHT22;9071;48.220;14.480;2024-01-10T18:03:39;-3.30;99.90
17891;DHT22;9071;48.220;14.480;2024-01-10T18:08:42;-3.50;99.90
17891;DHT22;9071;48.220;14.480;2024-01-10T18:13:44;-3.50;99.90
17891;DHT22;9071;48.220;14.480;2024-01-10T18:18:46;-3.60;99.90
17891;DHT22;9071;48.220;14.480;2024-01-10T18:23:50;-3.60;99.90
17891;DHT22;9071;48.220;14.480;2024-01-10T18:28:52;-3.50;99.90
17891;DHT22;9071;48.220;14.480;2024-01-10T18:33:54;-3.50;99.90
17891;DHT22;9071;48.220;14.480;2024-01-10T18:38:57;-3.50;99.90
17891;DHT22;9071;48.220;14.480;2024-01-10T18:43:59;-3.40;99.90
17891;DHT22;9071;48.220;14.480;2024-01-10T18:49:02;-3.40;99.90
17891;DHT22;9071;48.220;14.480;2024-01-10T18:54:07;-3.40;99.90
17891;DHT22;9071;48.220;14.480;2024-01-10T18:59:09;-3.60;99.90
17891;DHT22;9071;48.220;14.480;2024-01-10T19:04:11;-3.70;99.90
17891;DHT22;9071;48.220;14.480;2024-01-10T19:09:14;-3.80;99.90
17891;DHT22;9071;48.220;14.480;2024-01-10T19:14:16;-3.80;99.90
17891;DHT22;9071;48.220;14.480;2024-01-10T19:19:18;-3.70;99.90
17891;DHT22;9071;48.220;14.480;2024-01-10T19:24:24;-3.60;99.90
17891;DHT22;9071;48.220;14.480;2024-01-10T19:29:26;-3.70;99.90
17891;DHT22;9071;48.220;14.480;2024-01-10T19:34:28;-3.90;99.90
17891;DHT22;9071;48.220;14.480;2024-01-10T19:39:32;-3.90;99.90
17891;DHT22;9071;48.220;14.480;2024-01-10T19:44:34;-4.00;99.90
17891;DHT22;9071;48.220;14.480;2024-01-10T19:49:36;-4.20;99.90
17891;DHT22;9071;48.220;14.480;2024-01-10T19:54:39;-4.30;99.90
17891;DHT22;9071;48.220;14.480;2024-01-10T19:59:42;-4.50;99.90
17891;DHT22;9071;48.220;14.480;2024-01-10T20:04:44;-4.60;99.90
17891;DHT22;9071;48.220;14.480;2024-01-10T20:09:47;-4.70;99.90
17891;DHT22;9071;48.220;14.480;2024-01-10T20:14:50;-4.70;99.90
17891;DHT22;9071;48.220;14.480;2024-01-10T20:19:53;-4.80;99.90
17891;DHT22;9071;48.220;14.480;2024-01-10T20:24:56;-4.80;99.90
17891;DHT22;9071;48.220;14.480;2024-01-10T20:29:58;-4.80;99.90
17891;DHT22;9071;48.220;14.480;2024-01-10T20:35:00;-4.90;99.90
17891;DHT22;9071;48.220;14.480;2024-01-10T20:40:05;-4.90;99.90
17891;DHT22;9071;48.220;14.480;2024-01-10T20:45:07;-5.00;99.90
17891;DHT22;9071;48.220;14.480;2024-01-10T20:50:10;-5.10;99.90
17891;DHT22;9071;48.220;14.480;2024-01-10T20:55:13;-5.10;99.90
17891;DHT22;9071;48.220;14.480;2024-01-10T21:00:16;-5.10;99.90
17891;DHT22;9071;48.220;14.480;2024-01-10T21:05:23;-5.10;99.90
17891;DHT22;9071;48.220;14.480;2024-01-10T21:10:26;-5.10;99.90
17891;DHT22;9071;48.220;14.480;2024-01-10T21:15:28;-5.20;99.90
17891;DHT22;9071;48.220;14.480;2024-01-10T21:20:30;-5.30;99.90
17891;DHT22;9071;48.220;14.480;2024-01-10T21:25:34;-5.40;99.90
17891;DHT22;9071;48.220;14.480;2024-01-10T21:30:36;-5.50;99.90
17891;DHT22;9071;48.220;14.480;2024-01-10T21:35:38;-5.50;99.90
17891;DHT22;9071;48.220;14.480;2024-01-10T21:40:41;-5.60;99.90
17891;DHT22;9071;48.220;14.480;2024-01-10T21:45:43;-5.60;99.90
17891;DHT22;9071;48.220;14.480;2024-01-10T21:50:45;-5.70;99.90
17891;DHT22;9071;48.220;14.480;2024-01-10T21:55:49;-5.70;99.90
17891;DHT22;9071;48.220;14.480;2024-01-10T22:00:51;-5.60;99.90
17891;DHT22;9071;48.220;14.480;2024-01-10T22:05:53;-5.70;99.90
17891;DHT22;9071;48.220;14.480;2024-01-10T22:10:56;-5.60;99.90
17891;DHT22;9071;48.220;14.480;2024-01-10T22:15:58;-5.70;99.90
17891;DHT22;9071;48.220;14.480;2024-01-10T22:21:00;-5.60;99.90
17891;DHT22;9071;48.220;14.480;2024-01-10T22:26:04;-5.70;99.90
17891;DHT22;9071;48.220;14.480;2024-01-10T22:31:06;-5.70;99.90
17891;DHT22;9071;48.220;14.480;2024-01-10T22:36:08;-5.80;99.90
17891;DHT22;9071;48.220;14.480;2024-01-10T22:41:12;-5.80;99.90
17891;DHT22;9071;48.220;14.480;2024-01-10T22:46:14;-5.80;99.90
17891;DHT22;9071;48.220;14.480;2024-01-10T22:51:17;-5.90;99.90
17891;DHT22;9071;48.220;14.480;2024-01-10T22:56:21;-5.90;99.90
17891;DHT22;9071;48.220;14.480;2024-01-10T23:01:23;-6.00;99.90
17891;DHT22;9071;48.220;14.480;2024-01-10T23:06:26;-6.00;99.90
17891;DHT22;9071;48.220;14.480;2024-01-10T23:11:29;-6.00;99.90
17891;DHT22;9071;48.220;14.480;2024-01-10T23:16:31;-6.10;99.90
17891;DHT22;9071;48.220;14.480;2024-01-10T23:21:34;-6.10;99.90
17891;DHT22;9071;48.220;14.480;2024-01-10T23:26:38;-6.20;99.90
17891;DHT22;9071;48.220;14.480;2024-01-10T23:31:40;-6.20;99.90
17891;DHT22;9071;48.220;14.480;2024-01-10T23:36:43;-6.20;99.90
17891;DHT22;9071;48.220;14.480;2024-01-10T23:41:46;-6.30;99.90
17891;DHT22;9071;48.220;14.480;2024-01-10T23:46:48;-6.30;99.90
17891;DHT22;9071;48.220;14.480;2024-01-10T23:51:50;-6.30;99.90
17891;DHT22;9071;48.220;14.480;2024-01-10T23:56:54;-6.30;99.90
